createdAt,value
2018-01-27T00:00:44.751Z,85.30
2018-01-27T00:01:50.271Z,85.53
2018-01-27T00:02:55.768Z,85.35
2018-01-27T00:04:01.295Z,85.44
2018-01-27T00:05:06.804Z,85.06
2018-01-27T00:06:12.292Z,85.53
2018-01-27T00:07:17.810Z,84.97
2018-01-27T00:08:23.314Z,84.68
2018-01-27T00:09:28.833Z,85.16
2018-01-27T00:10:34.330Z,85.72
2018-01-27T00:11:39.840Z,84.59
2018-01-27T00:12:45.345Z,84.49
2018-01-27T00:13:50.856Z,85.82
2018-01-27T00:14:56.363Z,85.35
2018-01-27T00:16:01.871Z,85.91
2018-01-27T00:17:07.374Z,84.87
2018-01-27T00:18:12.893Z,85.06
2018-01-27T00:19:18.406Z,84.49
2018-01-27T00:20:23.909Z,85.63
2018-01-27T00:21:29.424Z,85.53
2018-01-27T00:22:34.925Z,85.16
2018-01-27T00:23:40.431Z,84.68
2018-01-27T00:24:45.939Z,85.53
2018-01-27T00:25:51.451Z,85.63
2018-01-27T00:26:56.994Z,85.35
2018-01-27T00:28:02.462Z,85.25
2018-01-27T00:29:07.971Z,84.97
2018-01-27T00:30:13.482Z,84.97
2018-01-27T00:31:18.993Z,84.68
2018-01-27T00:32:24.502Z,85.16
2018-01-27T00:33:30.009Z,84.97
2018-01-27T00:34:35.509Z,84.78
2018-01-27T00:35:41.028Z,84.78
2018-01-27T00:36:46.532Z,84.68
2018-01-27T00:37:52.042Z,85.06
2018-01-27T00:38:57.553Z,85.35
2018-01-27T00:40:03.070Z,85.35
2018-01-27T00:41:08.570Z,85.25
2018-01-27T00:42:14.086Z,85.53
2018-01-27T00:43:19.583Z,85.25
2018-01-27T00:44:25.099Z,84.49
2018-01-27T00:45:30.611Z,84.59
2018-01-27T00:46:36.113Z,84.49
2018-01-27T00:47:41.619Z,84.87
2018-01-27T00:48:47.130Z,84.78
2018-01-27T00:49:52.645Z,85.16
2018-01-27T00:50:58.147Z,84.97
2018-01-27T00:52:03.652Z,85.06
2018-01-27T00:53:09.160Z,84.97
2018-01-27T00:54:14.669Z,84.68
2018-01-27T00:55:20.176Z,84.59
2018-01-27T00:56:25.684Z,85.16
2018-01-27T00:57:31.198Z,85.16
2018-01-27T00:58:36.710Z,85.06
2018-01-27T00:59:42.223Z,85.16
2018-01-27T01:00:47.735Z,84.49
2018-01-27T01:01:53.239Z,84.49
2018-01-27T01:02:58.738Z,85.53
2018-01-27T01:04:04.255Z,84.49
2018-01-27T01:05:09.761Z,85.06
2018-01-27T01:06:15.263Z,85.06
2018-01-27T01:07:20.778Z,85.25
2018-01-27T01:08:26.294Z,84.68
2018-01-27T01:09:31.800Z,85.06
2018-01-27T01:10:37.302Z,84.87
2018-01-27T01:11:42.818Z,84.97
2018-01-27T01:12:48.328Z,85.63
2018-01-27T01:13:53.826Z,85.44
2018-01-27T01:14:59.339Z,85.63
2018-01-27T01:16:04.850Z,85.06
2018-01-27T01:17:10.357Z,84.78
2018-01-27T01:18:15.871Z,85.16
2018-01-27T01:19:21.373Z,84.68
2018-01-27T01:20:26.879Z,84.87
2018-01-27T01:21:32.390Z,84.87
2018-01-27T01:22:37.900Z,84.97
2018-01-27T01:23:43.424Z,84.87
2018-01-27T01:24:48.920Z,85.16
2018-01-27T01:25:54.423Z,85.06
2018-01-27T01:26:59.933Z,84.59
2018-01-27T01:28:05.453Z,85.82
2018-01-27T01:29:10.949Z,85.25
2018-01-27T01:30:16.461Z,84.87
2018-01-27T01:31:21.972Z,84.68
2018-01-27T01:32:27.476Z,84.87
2018-01-27T01:33:32.995Z,85.06
2018-01-27T01:34:38.490Z,84.87
2018-01-27T01:35:44.007Z,84.40
2018-01-27T01:36:49.510Z,84.59
2018-01-27T01:37:55.027Z,84.87
2018-01-27T01:39:00.528Z,85.35
2018-01-27T01:40:06.043Z,85.16
2018-01-27T01:41:11.545Z,84.97
2018-01-27T01:42:17.055Z,84.97
2018-01-27T01:43:22.563Z,84.59
2018-01-27T01:44:28.075Z,84.49
2018-01-27T01:45:33.582Z,84.59
2018-01-27T01:46:39.093Z,84.97
2018-01-27T01:47:44.600Z,85.06
2018-01-27T01:48:50.112Z,85.06
2018-01-27T01:49:55.619Z,84.30
2018-01-27T01:51:01.138Z,85.53
2018-01-27T01:52:06.635Z,84.87
2018-01-27T01:53:12.143Z,84.97
2018-01-27T01:54:17.657Z,85.53
2018-01-27T01:55:23.163Z,85.44
2018-01-27T01:56:28.673Z,84.91
2018-01-27T01:57:34.181Z,85.63
2018-01-27T01:58:39.689Z,85.53
2018-01-27T01:59:45.198Z,84.78
2018-01-27T02:00:50.714Z,85.63
2018-01-27T02:01:56.277Z,84.68
2018-01-27T02:03:01.733Z,85.11
2018-01-27T02:04:07.272Z,85.39
2018-01-27T02:05:12.755Z,85.72
2018-01-27T02:06:18.250Z,84.44
2018-01-27T02:07:23.760Z,84.30
2018-01-27T02:08:29.272Z,84.40
2018-01-27T02:09:34.778Z,84.97
2018-01-27T02:10:40.296Z,84.44
2018-01-27T02:11:45.804Z,84.59
2018-01-27T02:12:51.307Z,84.59
2018-01-27T02:13:56.815Z,84.40
2018-01-27T02:15:02.324Z,85.68
2018-01-27T02:16:07.832Z,85.35
2018-01-27T02:17:13.342Z,85.11
2018-01-27T02:18:18.849Z,84.72
2018-01-27T02:19:24.359Z,85.16
2018-01-27T02:20:29.866Z,85.20
2018-01-27T02:21:35.379Z,85.58
2018-01-27T02:22:40.891Z,84.91
2018-01-27T02:23:46.393Z,85.20
2018-01-27T02:24:51.913Z,84.53
2018-01-27T02:25:57.421Z,85.20
2018-01-27T02:27:02.923Z,85.30
2018-01-27T02:28:08.432Z,85.06
2018-01-27T02:29:13.958Z,84.25
2018-01-27T02:30:19.444Z,84.91
2018-01-27T02:31:24.969Z,84.82
2018-01-27T02:32:30.462Z,84.91
2018-01-27T02:33:35.974Z,84.72
2018-01-27T02:34:41.635Z,84.53
2018-01-27T02:35:46.993Z,84.53
2018-01-27T02:36:52.510Z,85.25
2018-01-27T02:37:58.014Z,84.82
2018-01-27T02:39:04.197Z,84.63
2018-01-27T02:40:09.040Z,84.34
2018-01-27T02:41:14.542Z,84.25
2018-01-27T02:42:20.048Z,85.58
2018-01-27T02:43:25.553Z,85.20
2018-01-27T02:44:31.066Z,84.53
2018-01-27T02:45:36.575Z,84.53
2018-01-27T02:46:42.081Z,85.86
2018-01-27T02:47:47.591Z,84.82
2018-01-27T02:48:53.106Z,84.53
2018-01-27T02:49:58.610Z,84.63
2018-01-27T02:51:04.122Z,85.68
2018-01-27T02:52:09.644Z,85.68
2018-01-27T02:53:15.136Z,84.53
2018-01-27T02:54:20.654Z,84.63
2018-01-27T02:55:26.161Z,85.77
2018-01-27T02:56:31.684Z,85.68
2018-01-27T02:57:37.173Z,85.49
2018-01-27T02:58:42.683Z,84.91
2018-01-27T02:59:48.194Z,84.91
2018-01-27T03:00:53.698Z,85.01
2018-01-27T03:01:59.215Z,84.82
2018-01-27T03:03:04.722Z,85.39
2018-01-27T03:04:10.223Z,84.34
2018-01-27T03:05:15.734Z,85.20
2018-01-27T03:06:21.243Z,85.11
2018-01-27T03:07:26.754Z,85.11
2018-01-27T03:08:32.262Z,84.72
2018-01-27T03:09:37.774Z,85.58
2018-01-27T03:10:43.278Z,85.20
2018-01-27T03:11:48.794Z,84.53
2018-01-27T03:12:54.296Z,85.39
2018-01-27T03:13:59.812Z,85.20
2018-01-27T03:15:05.315Z,84.91
2018-01-27T03:16:10.830Z,85.77
2018-01-27T03:17:16.475Z,85.01
2018-01-27T03:18:21.841Z,85.20
2018-01-27T03:19:27.447Z,85.30
2018-01-27T03:20:32.872Z,84.53
2018-01-27T03:21:38.369Z,84.63
2018-01-27T03:22:43.935Z,85.20
2018-01-27T03:23:49.392Z,85.77
2018-01-27T03:24:54.913Z,85.77
2018-01-27T03:26:00.411Z,85.11
2018-01-27T03:27:05.915Z,85.01
2018-01-27T03:28:11.426Z,85.39
2018-01-27T03:29:16.933Z,84.53
2018-01-27T03:30:22.443Z,84.44
2018-01-27T03:31:27.957Z,84.34
2018-01-27T03:32:33.461Z,84.53
2018-01-27T03:33:38.971Z,84.63
2018-01-27T03:34:44.474Z,84.34
2018-01-27T03:35:49.993Z,84.34
2018-01-27T03:36:55.498Z,84.44
2018-01-27T03:38:01.006Z,84.91
2018-01-27T03:39:06.522Z,85.39
2018-01-27T03:40:12.032Z,84.82
2018-01-27T03:41:17.533Z,84.63
2018-01-27T03:42:23.044Z,84.44
2018-01-27T03:43:28.552Z,85.30
2018-01-27T03:44:34.058Z,85.49
2018-01-27T03:45:39.574Z,85.39
2018-01-27T03:46:45.081Z,85.20
2018-01-27T03:47:50.591Z,85.20
2018-01-27T03:48:56.100Z,84.72
2018-01-27T03:50:01.608Z,85.20
2018-01-27T03:51:07.116Z,84.25
2018-01-27T03:52:12.627Z,84.34
2018-01-27T03:53:18.135Z,84.63
2018-01-27T03:54:23.650Z,84.82
2018-01-27T03:55:29.156Z,85.20
2018-01-27T03:56:34.666Z,84.34
2018-01-27T03:57:40.171Z,84.63
2018-01-27T03:58:45.688Z,85.20
2018-01-27T03:59:51.187Z,84.53
2018-01-27T04:00:56.699Z,84.34
2018-01-27T04:02:02.206Z,85.01
2018-01-27T04:03:07.727Z,84.91
2018-01-27T04:04:13.243Z,84.91
2018-01-27T04:05:18.745Z,84.91
2018-01-27T04:06:24.324Z,84.91
2018-01-27T04:07:29.749Z,84.78
2018-01-27T04:08:35.264Z,84.53
2018-01-27T04:09:40.777Z,84.63
2018-01-27T04:10:46.279Z,84.68
2018-01-27T04:11:51.792Z,84.40
2018-01-27T04:12:57.308Z,84.97
2018-01-27T04:14:02.815Z,84.87
2018-01-27T04:15:08.313Z,85.35
2018-01-27T04:16:13.824Z,84.49
2018-01-27T04:17:19.333Z,84.59
2018-01-27T04:18:24.848Z,84.49
2018-01-27T04:19:30.356Z,85.16
2018-01-27T04:20:35.859Z,84.87
2018-01-27T04:21:41.369Z,84.78
2018-01-27T04:22:46.877Z,84.97
2018-01-27T04:23:52.399Z,84.87
2018-01-27T04:24:57.892Z,84.78
2018-01-27T04:26:03.402Z,85.63
2018-01-27T04:27:08.912Z,85.16
2018-01-27T04:28:14.423Z,84.97
2018-01-27T04:29:19.929Z,84.68
2018-01-27T04:30:25.431Z,85.16
2018-01-27T04:31:30.950Z,85.16
2018-01-27T04:32:36.459Z,84.87
2018-01-27T04:33:41.964Z,85.35
2018-01-27T04:34:47.466Z,85.53
2018-01-27T04:35:52.986Z,85.25
2018-01-27T04:36:58.494Z,85.25
2018-01-27T04:38:03.997Z,85.44
2018-01-27T04:39:09.509Z,85.44
2018-01-27T04:40:15.017Z,84.87
2018-01-27T04:41:20.527Z,84.68
2018-01-27T04:42:26.038Z,85.25
2018-01-27T04:43:31.543Z,84.78
2018-01-27T04:44:37.054Z,85.16
2018-01-27T04:45:42.597Z,85.06
2018-01-27T04:46:48.079Z,84.49
2018-01-27T04:47:53.584Z,84.78
2018-01-27T04:48:59.092Z,84.49
2018-01-27T04:50:04.606Z,84.87
2018-01-27T04:51:10.134Z,84.97
2018-01-27T04:52:15.610Z,84.87
2018-01-27T04:53:21.121Z,84.87
2018-01-27T04:54:26.641Z,84.87
2018-01-27T04:55:32.142Z,84.78
2018-01-27T04:56:37.657Z,84.78
2018-01-27T04:57:43.164Z,85.53
2018-01-27T04:58:48.668Z,84.49
2018-01-27T04:59:54.180Z,84.97
2018-01-27T05:00:59.683Z,85.53
2018-01-27T05:02:05.208Z,85.06
2018-01-27T05:03:10.702Z,84.49
2018-01-27T05:04:16.217Z,85.16
2018-01-27T05:05:21.724Z,84.40
2018-01-27T05:06:27.228Z,84.59
2018-01-27T05:07:32.740Z,85.06
2018-01-27T05:08:38.247Z,84.97
2018-01-27T05:09:43.752Z,85.53
2018-01-27T05:10:49.263Z,85.63
2018-01-27T05:11:54.774Z,85.35
2018-01-27T05:13:00.286Z,85.72
2018-01-27T05:14:05.790Z,85.53
2018-01-27T05:15:11.301Z,85.35
2018-01-27T05:16:16.809Z,86.30
2018-01-27T05:17:22.316Z,86.30
2018-01-27T05:18:27.822Z,86.11
2018-01-27T05:19:33.380Z,85.82
2018-01-27T05:20:38.846Z,86.20
2018-01-27T05:21:44.349Z,86.58
2018-01-27T05:22:49.860Z,86.58
2018-01-27T05:23:55.377Z,86.20
2018-01-27T05:25:00.883Z,86.58
2018-01-27T05:26:06.385Z,86.20
2018-01-27T05:27:11.893Z,86.11
2018-01-27T05:28:17.409Z,86.01
2018-01-27T05:29:23.063Z,86.58
2018-01-27T05:30:28.428Z,86.58
2018-01-27T05:31:33.947Z,85.91
2018-01-27T05:32:39.505Z,85.91
2018-01-27T05:33:44.956Z,85.86
2018-01-27T05:34:50.498Z,85.96
2018-01-27T05:35:55.978Z,85.72
2018-01-27T05:37:01.473Z,85.77
2018-01-27T05:38:06.989Z,85.44
2018-01-27T05:39:12.500Z,85.63
2018-01-27T05:40:18.005Z,85.44
2018-01-27T05:41:23.512Z,85.63
2018-01-27T05:42:29.017Z,85.44
2018-01-27T05:43:34.523Z,85.72
2018-01-27T05:44:40.034Z,85.72
2018-01-27T05:45:45.543Z,85.06
2018-01-27T05:46:51.054Z,85.06
2018-01-27T05:47:56.563Z,85.44
2018-01-27T05:49:02.071Z,84.97
2018-01-27T05:50:07.593Z,84.78
2018-01-27T05:51:13.087Z,84.49
2018-01-27T05:52:18.598Z,84.78
2018-01-27T05:53:24.103Z,84.78
2018-01-27T05:54:29.615Z,85.16
2018-01-27T05:55:35.123Z,84.49
2018-01-27T05:56:40.636Z,84.68
2018-01-27T05:57:46.144Z,84.78
2018-01-27T05:58:51.652Z,85.53
2018-01-27T05:59:57.159Z,85.06
2018-01-27T06:01:02.668Z,85.16
2018-01-27T06:02:08.179Z,85.35
2018-01-27T06:03:13.683Z,85.35
2018-01-27T06:04:19.193Z,85.63
2018-01-27T06:05:24.708Z,85.53
2018-01-27T06:06:30.214Z,85.72
2018-01-27T06:07:35.722Z,85.53
2018-01-27T06:08:41.226Z,85.53
2018-01-27T06:09:46.741Z,85.35
2018-01-27T06:10:52.252Z,85.72
2018-01-27T06:11:57.753Z,85.82
2018-01-27T06:13:03.264Z,85.91
2018-01-27T06:14:08.776Z,85.82
2018-01-27T06:15:14.283Z,85.63
2018-01-27T06:16:19.796Z,85.25
2018-01-27T06:17:25.417Z,85.16
2018-01-27T06:18:30.811Z,85.53
2018-01-27T06:19:36.319Z,85.53
2018-01-27T06:20:41.885Z,84.87
2018-01-27T06:21:47.333Z,84.78
2018-01-27T06:22:52.843Z,84.97
2018-01-27T06:23:58.366Z,84.87
2018-01-27T06:25:03.876Z,85.44
2018-01-27T06:26:09.369Z,85.06
2018-01-27T06:27:14.880Z,85.63
2018-01-27T06:28:20.385Z,85.72
2018-01-27T06:29:25.955Z,85.53
2018-01-27T06:30:31.402Z,85.72
2018-01-27T06:31:36.913Z,85.53
2018-01-27T06:32:42.421Z,85.63
2018-01-27T06:33:47.938Z,85.63
2018-01-27T06:34:53.430Z,85.72
2018-01-27T06:35:58.943Z,85.16
2018-01-27T06:37:04.461Z,85.82
2018-01-27T06:38:09.962Z,85.72
2018-01-27T06:39:15.473Z,85.72
2018-01-27T06:40:20.983Z,85.35
2018-01-27T06:41:26.492Z,85.72
2018-01-27T06:42:32.002Z,85.35
2018-01-27T06:43:37.503Z,85.72
2018-01-27T06:44:43.013Z,85.72
2018-01-27T06:45:48.519Z,86.11
2018-01-27T06:46:54.029Z,86.20
2018-01-27T06:47:59.544Z,85.82
2018-01-27T06:49:05.049Z,86.77
2018-01-27T06:50:10.556Z,86.20
2018-01-27T06:51:16.073Z,86.01
2018-01-27T06:52:21.576Z,85.82
2018-01-27T06:53:27.079Z,86.39
2018-01-27T06:54:32.598Z,86.01
2018-01-27T06:55:38.098Z,86.39
2018-01-27T06:56:43.608Z,86.20
2018-01-27T06:57:49.119Z,86.58
2018-01-27T06:58:54.627Z,86.49
2018-01-27T07:00:00.142Z,86.68
2018-01-27T07:01:05.641Z,86.11
2018-01-27T07:02:11.153Z,86.30
2018-01-27T07:03:16.689Z,86.39
2018-01-27T07:04:22.168Z,85.72
2018-01-27T07:05:27.675Z,85.72
2018-01-27T07:06:33.187Z,85.72
2018-01-27T07:07:38.698Z,85.35
2018-01-27T07:08:44.205Z,86.11
2018-01-27T07:09:49.716Z,85.82
2018-01-27T07:10:55.233Z,85.72
2018-01-27T07:12:00.734Z,85.35
2018-01-27T07:13:06.235Z,84.97
2018-01-27T07:14:11.743Z,85.72
2018-01-27T07:15:17.252Z,85.06
2018-01-27T07:16:22.762Z,84.92
2018-01-27T07:17:28.269Z,84.74
2018-01-27T07:18:33.782Z,84.92
2018-01-27T07:19:39.287Z,84.45
2018-01-27T07:20:44.789Z,84.74
2018-01-27T07:21:50.311Z,84.64
2018-01-27T07:22:55.813Z,84.64
2018-01-27T07:24:01.322Z,84.74
2018-01-27T07:25:06.831Z,84.74
2018-01-27T07:26:12.335Z,84.55
2018-01-27T07:27:17.856Z,84.36
2018-01-27T07:28:23.353Z,84.36
2018-01-27T07:29:28.862Z,85.02
2018-01-27T07:30:34.375Z,84.36
2018-01-27T07:31:39.886Z,84.36
2018-01-27T07:32:45.394Z,84.36
2018-01-27T07:33:50.906Z,84.45
2018-01-27T07:34:56.402Z,85.59
2018-01-27T07:36:01.913Z,84.74
2018-01-27T07:37:07.422Z,85.40
2018-01-27T07:38:12.928Z,85.30
2018-01-27T07:39:18.443Z,85.40
2018-01-27T07:40:23.949Z,85.49
2018-01-27T07:41:29.462Z,85.11
2018-01-27T07:42:34.963Z,85.49
2018-01-27T07:43:40.472Z,85.40
2018-01-27T07:44:45.980Z,85.30
2018-01-27T07:45:51.491Z,85.11
2018-01-27T07:46:56.994Z,85.59
2018-01-27T07:48:02.525Z,85.59
2018-01-27T07:49:08.036Z,85.59
2018-01-27T07:50:13.523Z,85.59
2018-01-27T07:51:19.052Z,84.83
2018-01-27T07:52:24.545Z,84.92
2018-01-27T07:53:30.044Z,85.45
2018-01-27T07:54:35.631Z,85.68
2018-01-27T07:55:41.062Z,85.93
2018-01-27T07:56:46.573Z,86.16
2018-01-27T07:57:52.075Z,85.87
2018-01-27T07:58:57.583Z,86.30
2018-01-27T08:00:03.091Z,85.87
2018-01-27T08:01:08.602Z,85.40
2018-01-27T08:02:14.121Z,85.49
2018-01-27T08:03:19.625Z,85.45
2018-01-27T08:04:25.122Z,85.64
2018-01-27T08:05:30.633Z,85.59
2018-01-27T08:06:36.138Z,85.45
2018-01-27T08:07:41.649Z,85.49
2018-01-27T08:08:47.159Z,85.68
2018-01-27T08:09:52.669Z,85.30
2018-01-27T08:10:58.171Z,85.68
2018-01-27T08:12:03.675Z,86.07
2018-01-27T08:13:09.204Z,85.68
2018-01-27T08:14:14.701Z,85.49
2018-01-27T08:15:20.203Z,85.40
2018-01-27T08:16:25.726Z,85.68
2018-01-27T08:17:31.219Z,85.49
2018-01-27T08:18:36.731Z,85.68
2018-01-27T08:19:42.232Z,85.78
2018-01-27T08:20:47.740Z,86.25
2018-01-27T08:21:53.246Z,86.25
2018-01-27T08:22:58.753Z,86.07
2018-01-27T08:24:04.272Z,86.54
2018-01-27T08:25:09.777Z,87.20
2018-01-27T08:26:15.283Z,87.39
2018-01-27T08:27:20.791Z,87.39
2018-01-27T08:28:26.307Z,87.49
2018-01-27T08:29:31.806Z,87.39
2018-01-27T08:30:37.311Z,87.34
2018-01-27T08:31:42.828Z,87.34
2018-01-27T08:32:48.332Z,87.39
2018-01-27T08:33:53.837Z,87.24
2018-01-27T08:34:59.410Z,87.15
2018-01-27T08:36:04.861Z,86.58
2018-01-27T08:37:10.365Z,86.68
2018-01-27T08:38:15.875Z,86.68
2018-01-27T08:39:21.379Z,86.77
2018-01-27T08:40:26.890Z,86.49
2018-01-27T08:41:32.396Z,86.58
2018-01-27T08:42:37.911Z,86.20
2018-01-27T08:43:43.410Z,85.91
2018-01-27T08:44:48.923Z,86.11
2018-01-27T08:45:54.434Z,86.11
2018-01-27T08:46:59.936Z,86.20
2018-01-27T08:48:05.445Z,86.30
2018-01-27T08:49:10.955Z,85.53
2018-01-27T08:50:16.460Z,85.82
2018-01-27T08:51:21.974Z,85.44
2018-01-27T08:52:27.490Z,85.63
2018-01-27T08:53:32.993Z,86.39
2018-01-27T08:54:38.498Z,86.77
2018-01-27T08:55:44.012Z,86.96
2018-01-27T08:56:49.510Z,87.57
2018-01-27T08:57:55.024Z,86.24
2018-01-27T08:59:00.527Z,86.24
2018-01-27T09:00:06.075Z,87.01
2018-01-27T09:01:11.546Z,84.82
2018-01-27T09:02:17.053Z,84.44
2018-01-27T09:03:22.570Z,83.87
2018-01-27T09:04:28.072Z,84.16
2018-01-27T09:05:33.583Z,83.78
2018-01-27T09:06:39.092Z,84.53
2018-01-27T09:07:44.596Z,83.68
2018-01-27T09:08:50.169Z,84.16
2018-01-27T09:09:55.619Z,84.72
2018-01-27T09:11:01.123Z,84.25
2018-01-27T09:12:06.629Z,84.34
2018-01-27T09:13:12.138Z,83.87
2018-01-27T09:14:17.649Z,84.06
2018-01-27T09:15:23.157Z,84.34
2018-01-27T09:16:28.663Z,84.25
2018-01-27T09:17:34.173Z,84.63
2018-01-27T09:18:39.684Z,84.53
2018-01-27T09:19:45.195Z,84.53
2018-01-27T09:20:50.698Z,83.97
2018-01-27T09:21:56.211Z,84.16
2018-01-27T09:23:01.723Z,83.78
2018-01-27T09:24:07.229Z,84.72
2018-01-27T09:25:12.782Z,84.53
2018-01-27T09:26:18.255Z,84.63
2018-01-27T09:27:23.761Z,84.53
2018-01-27T09:28:29.270Z,84.25
2018-01-27T09:29:34.775Z,83.78
2018-01-27T09:30:40.283Z,83.68
2018-01-27T09:31:45.837Z,83.87
2018-01-27T09:32:51.301Z,83.59
2018-01-27T09:33:56.806Z,83.59
2018-01-27T09:35:02.319Z,83.87
2018-01-27T09:36:07.824Z,83.97
2018-01-27T09:37:13.336Z,83.78
2018-01-27T09:38:18.850Z,83.87
2018-01-27T09:39:24.350Z,83.59
2018-01-27T09:40:29.868Z,83.59
2018-01-27T09:41:35.375Z,83.59
2018-01-27T09:42:40.898Z,84.16
2018-01-27T09:43:46.391Z,84.16
2018-01-27T09:44:51.921Z,83.49
2018-01-27T09:45:57.413Z,83.78
2018-01-27T09:47:02.914Z,83.11
2018-01-27T09:48:08.421Z,82.45
2018-01-27T09:49:13.943Z,82.73
2018-01-27T09:50:19.436Z,82.49
2018-01-27T09:51:24.947Z,82.58
2018-01-27T09:52:30.462Z,82.68
2018-01-27T09:53:35.979Z,82.49
2018-01-27T09:54:42.550Z,82.87
2018-01-27T09:55:46.997Z,81.82
2018-01-27T09:56:52.495Z,82.68
2018-01-27T09:57:57.999Z,82.39
2018-01-27T09:59:03.726Z,82.87
2018-01-27T10:00:09.023Z,82.20
2018-01-27T10:01:14.554Z,82.01
2018-01-27T10:02:20.034Z,81.92
2018-01-27T10:03:25.543Z,81.82
2018-01-27T10:04:31.053Z,82.10
2018-01-27T10:05:36.579Z,82.39
2018-01-27T10:06:42.379Z,82.39
2018-01-27T10:07:48.320Z,82.39
2018-01-27T10:08:54.868Z,82.10
2018-01-27T10:09:58.602Z,82.10
2018-01-27T10:11:04.142Z,82.29
2018-01-27T10:12:09.614Z,81.92
2018-01-27T10:13:15.133Z,82.39
2018-01-27T10:14:20.641Z,82.58
2018-01-27T10:15:26.152Z,82.39
2018-01-27T10:16:31.660Z,81.44
2018-01-27T10:17:37.185Z,81.73
2018-01-27T10:18:42.675Z,81.92
2018-01-27T10:19:48.190Z,81.44
2018-01-27T10:20:53.699Z,82.10
2018-01-27T10:21:59.205Z,82.05
2018-01-27T10:23:04.716Z,82.10
2018-01-27T10:24:10.229Z,81.77
2018-01-27T10:25:15.733Z,81.67
2018-01-27T10:26:21.241Z,81.38
2018-01-27T10:27:26.743Z,81.54
2018-01-27T10:28:32.263Z,81.10
2018-01-27T10:29:37.762Z,81.48
2018-01-27T10:30:43.279Z,80.91
2018-01-27T10:31:48.798Z,80.91
2018-01-27T10:32:54.298Z,81.20
2018-01-27T10:33:59.825Z,80.82
2018-01-27T10:35:05.328Z,80.82
2018-01-27T10:36:10.825Z,81.29
2018-01-27T10:37:16.336Z,80.91
2018-01-27T10:38:21.847Z,81.29
2018-01-27T10:39:27.355Z,80.82
2018-01-27T10:40:32.867Z,80.82
2018-01-27T10:41:38.381Z,81.01
2018-01-27T10:42:43.886Z,81.01
2018-01-27T10:43:49.399Z,81.29
2018-01-27T10:44:54.906Z,80.91
2018-01-27T10:46:00.422Z,81.20
2018-01-27T10:47:05.922Z,81.01
2018-01-27T10:48:11.433Z,81.10
2018-01-27T10:49:16.943Z,80.72
2018-01-27T10:50:22.450Z,80.53
2018-01-27T10:51:27.955Z,80.72
2018-01-27T10:52:33.471Z,80.53
2018-01-27T10:53:38.979Z,80.34
2018-01-27T10:54:44.489Z,80.24
2018-01-27T10:55:49.999Z,79.96
2018-01-27T10:56:55.505Z,80.63
2018-01-27T10:58:01.012Z,81.10
2018-01-27T10:59:06.530Z,80.91
2018-01-27T11:00:12.039Z,81.10
2018-01-27T11:01:17.547Z,81.10
2018-01-27T11:02:23.054Z,80.72
2018-01-27T11:03:28.569Z,80.91
2018-01-27T11:04:34.086Z,81.01
2018-01-27T11:05:39.592Z,80.82
2018-01-27T11:06:45.095Z,80.44
2018-01-27T11:07:50.661Z,81.01
2018-01-27T11:08:56.118Z,80.05
2018-01-27T11:10:01.624Z,80.82
2018-01-27T11:11:07.129Z,80.53
2018-01-27T11:12:12.637Z,80.53
2018-01-27T11:13:18.145Z,80.29
2018-01-27T11:14:23.660Z,79.58
2018-01-27T11:15:29.169Z,79.39
2018-01-27T11:16:34.713Z,79.05
2018-01-27T11:17:40.195Z,79.05
2018-01-27T11:18:45.701Z,79.52
2018-01-27T11:19:51.218Z,78.96
2018-01-27T11:20:56.715Z,79.24
2018-01-27T11:22:02.228Z,78.19
2018-01-27T11:23:07.740Z,78.00
2018-01-27T11:24:13.252Z,79.14
2018-01-27T11:25:18.761Z,78.96
2018-01-27T11:26:24.281Z,78.77
2018-01-27T11:27:29.790Z,78.00
2018-01-27T11:28:35.334Z,78.29
2018-01-27T11:29:40.812Z,78.96
2018-01-27T11:30:46.314Z,78.86
2018-01-27T11:31:51.822Z,79.05
2018-01-27T11:32:57.326Z,78.77
2018-01-27T11:34:02.839Z,78.19
2018-01-27T11:35:08.356Z,76.10
2018-01-27T11:36:13.860Z,76.57
2018-01-27T11:37:19.369Z,77.15
2018-01-27T11:38:24.879Z,77.91
2018-01-27T11:39:30.391Z,77.62
2018-01-27T11:40:35.897Z,77.15
2018-01-27T11:41:41.409Z,77.24
2018-01-27T11:42:46.940Z,77.53
2018-01-27T11:43:52.444Z,77.34
2018-01-27T11:44:57.937Z,77.05
2018-01-27T11:46:03.445Z,76.42
2018-01-27T11:47:08.966Z,75.43
2018-01-27T11:48:14.474Z,75.24
2018-01-27T11:49:19.988Z,75.24
2018-01-27T11:50:25.490Z,75.43
2018-01-27T11:51:31.013Z,75.53
2018-01-27T11:52:36.515Z,75.67
2018-01-27T11:53:42.020Z,75.62
2018-01-27T11:54:47.533Z,75.38
2018-01-27T11:55:53.043Z,75.09
2018-01-27T11:56:58.556Z,74.90
2018-01-27T11:58:04.062Z,74.33
2018-01-27T11:59:09.581Z,73.57
2018-01-27T12:00:15.087Z,73.19
2018-01-27T12:01:20.593Z,72.71
2018-01-27T12:02:26.109Z,73.28
2018-01-27T12:03:31.622Z,73.00
2018-01-27T12:04:37.122Z,73.38
2018-01-27T12:05:42.637Z,72.42
2018-01-27T12:06:48.161Z,72.81
2018-01-27T12:07:53.782Z,72.71
2018-01-27T12:08:59.175Z,72.71
2018-01-27T12:10:04.738Z,72.81
2018-01-27T12:11:10.189Z,72.33
2018-01-27T12:12:15.702Z,71.47
2018-01-27T12:13:21.212Z,72.14
2018-01-27T12:14:26.725Z,71.76
2018-01-27T12:15:32.233Z,71.76
2018-01-27T12:16:37.738Z,72.24
2018-01-27T12:17:43.249Z,72.24
2018-01-27T12:18:48.764Z,71.28
2018-01-27T12:19:54.276Z,71.67
2018-01-27T12:20:59.791Z,71.38
2018-01-27T12:22:05.294Z,71.47
2018-01-27T12:23:10.811Z,71.00
2018-01-27T12:24:16.314Z,71.47
2018-01-27T12:25:21.821Z,71.57
2018-01-27T12:26:27.336Z,72.14
2018-01-27T12:27:32.853Z,72.05
2018-01-27T12:28:38.364Z,71.76
2018-01-27T12:29:43.872Z,71.86
2018-01-27T12:30:49.388Z,72.52
2018-01-27T12:31:54.887Z,71.76
2018-01-27T12:33:00.408Z,71.67
2018-01-27T12:34:05.919Z,71.86
2018-01-27T12:35:11.430Z,71.57
2018-01-27T12:36:16.935Z,71.98
2018-01-27T12:37:22.442Z,71.61
2018-01-27T12:38:27.955Z,71.80
2018-01-27T12:39:33.477Z,70.37
2018-01-27T12:40:38.981Z,70.75
2018-01-27T12:41:44.487Z,70.50
2018-01-27T12:42:50.002Z,70.50
2018-01-27T12:43:55.530Z,71.36
2018-01-27T12:45:01.019Z,70.88
2018-01-27T12:46:06.525Z,70.59
2018-01-27T12:47:12.038Z,70.31
2018-01-27T12:48:17.552Z,69.83
2018-01-27T12:49:23.071Z,69.10
2018-01-27T12:50:28.572Z,68.05
2018-01-27T12:51:34.085Z,67.77
2018-01-27T12:52:39.604Z,67.68
2018-01-27T12:53:45.111Z,66.44
2018-01-27T12:54:50.631Z,65.29
2018-01-27T12:55:56.124Z,65.39
2018-01-27T12:57:01.637Z,65.67
2018-01-27T12:58:07.154Z,65.58
2018-01-27T12:59:12.663Z,64.62
2018-01-27T13:00:18.174Z,64.91
2018-01-27T13:01:23.685Z,66.05
2018-01-27T13:02:29.202Z,67.00
2018-01-27T13:03:34.726Z,66.63
2018-01-27T13:04:40.218Z,65.67
2018-01-27T13:05:45.734Z,65.83
2018-01-27T13:06:51.266Z,66.05
2018-01-27T13:07:56.767Z,62.84
2018-01-27T13:09:02.286Z,61.32
2018-01-27T13:10:07.786Z,60.04
2018-01-27T13:11:13.295Z,58.70
2018-01-27T13:12:18.812Z,58.58
2018-01-27T13:13:24.313Z,57.62
2018-01-27T13:14:29.829Z,56.73
2018-01-27T13:15:35.347Z,55.96
2018-01-27T13:16:40.872Z,56.25
2018-01-27T13:17:46.363Z,57.11
2018-01-27T13:18:51.891Z,57.11
2018-01-27T13:19:57.405Z,56.25
2018-01-27T13:21:02.902Z,57.11
2018-01-27T13:22:08.428Z,56.63
2018-01-27T13:23:13.932Z,55.75
2018-01-27T13:24:19.452Z,56.87
2018-01-27T13:25:24.956Z,57.56
2018-01-27T13:26:30.492Z,58.42
2018-01-27T13:27:35.986Z,58.61
2018-01-27T13:28:41.502Z,58.29
2018-01-27T13:29:47.011Z,59.06
2018-01-27T13:30:52.524Z,59.34
2018-01-27T13:31:58.052Z,60.11
2018-01-27T13:33:03.540Z,60.39
2018-01-27T13:34:09.052Z,59.53
2018-01-27T13:35:14.568Z,59.53
2018-01-27T13:36:20.077Z,60.39
2018-01-27T13:37:25.610Z,60.75
2018-01-27T13:38:31.113Z,61.22
2018-01-27T13:39:36.617Z,61.89
2018-01-27T13:40:42.135Z,61.13
2018-01-27T13:41:47.640Z,61.13
2018-01-27T13:42:53.163Z,61.54
2018-01-27T13:43:58.666Z,62.40
2018-01-27T13:45:04.182Z,61.04
2018-01-27T13:46:09.688Z,62.27
2018-01-27T13:47:15.200Z,62.56
2018-01-27T13:48:20.714Z,62.72
2018-01-27T13:49:26.228Z,62.52
2018-01-27T13:50:31.737Z,63.00
2018-01-27T13:51:37.261Z,63.67
2018-01-27T13:52:42.756Z,63.57
2018-01-27T13:53:48.272Z,63.48
2018-01-27T13:54:53.784Z,64.12
2018-01-27T13:55:59.294Z,63.64
2018-01-27T13:57:04.820Z,64.40
2018-01-27T13:58:10.322Z,64.31
2018-01-27T13:59:15.828Z,63.92
2018-01-27T14:00:21.360Z,64.12
2018-01-27T14:01:26.860Z,64.40
2018-01-27T14:02:32.373Z,65.07
2018-01-27T14:03:37.890Z,63.76